Glen, Nebraska
Current Conditions -  °F | °C
As of 4:53 PM on Friday 19 Dec 2014 (Local Time) from KCDR Reporting Station
Clear Clear  
Wind Chill: 28°   Ceiling: Unl
Heat Index: 28°   Visibility: 10mi
Dew Point: 21°   Wind: 3mph
Humidity: 75%   Direction: 240°WSW
Pressure: 29.97"   Gusts: NA
Location:  42.7426°N, 103.391°W
Report Text: KCDR 192353Z AUTO 24003KT 10SM CLR M02/M06 A2997 RMK AO2 SLP208 T10221061 10067 21022 51005
Loading
Personal Weather Stations






























Interactive Weather Map New forecast layout! Learn more

10-Day Weather Forecast

Advertisements
Track Severe Weather on mobile